sensor_id;sensor_type;location;lat;lon;timestamp;P1;durP1;ratioP1;P2;durP2;ratioP2
61015;SDS011;46902;52.920;6.536;2023-04-16T00:00:14;69.03;;;30.85;;
61015;SDS011;46902;52.920;6.536;2023-04-16T00:02:39;72.72;;;30.65;;
61015;SDS011;46902;52.920;6.536;2023-04-16T00:05:05;66.93;;;29.70;;
61015;SDS011;46902;52.920;6.536;2023-04-16T00:07:31;63.15;;;30.05;;
61015;SDS011;46902;52.920;6.536;2023-04-16T00:09:57;70.65;;;31.60;;
61015;SDS011;46902;52.920;6.536;2023-04-16T00:12:22;66.22;;;30.70;;
61015;SDS011;46902;52.920;6.536;2023-04-16T00:14:48;72.05;;;31.98;;
61015;SDS011;46902;52.920;6.536;2023-04-16T00:17:14;73.05;;;31.35;;
61015;SDS011;46902;52.920;6.536;2023-04-16T00:19:40;68.32;;;31.45;;
61015;SDS011;46902;52.920;6.536;2023-04-16T00:22:06;64.30;;;29.98;;
61015;SDS011;46902;52.920;6.536;2023-04-16T00:24:31;73.78;;;31.33;;
61015;SDS011;46902;52.920;6.536;2023-04-16T00:26:57;55.55;;;29.52;;
61015;SDS011;46902;52.920;6.536;2023-04-16T00:29:23;62.53;;;30.35;;
61015;SDS011;46902;52.920;6.536;2023-04-16T00:31:49;63.38;;;32.45;;
61015;SDS011;46902;52.920;6.536;2023-04-16T00:34:15;73.65;;;31.17;;
61015;SDS011;46902;52.920;6.536;2023-04-16T00:36:40;67.78;;;31.33;;
61015;SDS011;46902;52.920;6.536;2023-04-16T00:39:06;76.85;;;32.83;;
61015;SDS011;46902;52.920;6.536;2023-04-16T00:41:32;66.63;;;31.05;;
61015;SDS011;46902;52.920;6.536;2023-04-16T00:43:57;62.17;;;29.85;;
61015;SDS011;46902;52.920;6.536;2023-04-16T00:46:23;59.85;;;28.58;;
61015;SDS011;46902;52.920;6.536;2023-04-16T00:48:50;61.20;;;29.83;;
61015;SDS011;46902;52.920;6.536;2023-04-16T00:51:18;57.65;;;28.20;;
61015;SDS011;46902;52.920;6.536;2023-04-16T00:53:46;67.80;;;30.95;;
61015;SDS011;46902;52.920;6.536;2023-04-16T00:56:12;72.38;;;31.30;;
61015;SDS011;46902;52.920;6.536;2023-04-16T00:58:38;63.25;;;30.27;;
61015;SDS011;46902;52.920;6.536;2023-04-16T01:01:04;71.53;;;32.42;;
61015;SDS011;46902;52.920;6.536;2023-04-16T01:03:37;67.35;;;31.05;;
61015;SDS011;46902;52.920;6.536;2023-04-16T01:06:04;61.50;;;29.55;;
61015;SDS011;46902;52.920;6.536;2023-04-16T01:08:31;69.35;;;32.08;;
61015;SDS011;46902;52.920;6.536;2023-04-16T01:10:57;63.28;;;29.05;;
61015;SDS011;46902;52.920;6.536;2023-04-16T01:13:22;76.93;;;33.47;;
61015;SDS011;46902;52.920;6.536;2023-04-16T01:15:48;74.50;;;32.08;;
61015;SDS011;46902;52.920;6.536;2023-04-16T01:18:18;82.10;;;33.03;;
61015;SDS011;46902;52.920;6.536;2023-04-16T01:20:48;74.70;;;31.98;;
61015;SDS011;46902;52.920;6.536;2023-04-16T01:23:14;74.05;;;32.10;;
61015;SDS011;46902;52.920;6.536;2023-04-16T01:25:42;71.25;;;30.60;;
61015;SDS011;46902;52.920;6.536;2023-04-16T01:28:08;71.28;;;32.83;;
61015;SDS011;46902;52.920;6.536;2023-04-16T01:30:33;83.50;;;33.70;;
61015;SDS011;46902;52.920;6.536;2023-04-16T01:32:59;65.68;;;30.77;;
61015;SDS011;46902;52.920;6.536;2023-04-16T01:35:25;79.85;;;33.53;;
61015;SDS011;46902;52.920;6.536;2023-04-16T01:37:50;71.43;;;31.35;;
61015;SDS011;46902;52.920;6.536;2023-04-16T01:40:16;80.63;;;33.67;;
61015;SDS011;46902;52.920;6.536;2023-04-16T01:42:42;75.15;;;30.98;;
61015;SDS011;46902;52.920;6.536;2023-04-16T01:45:08;77.22;;;32.60;;
61015;SDS011;46902;52.920;6.536;2023-04-16T01:47:34;87.47;;;33.95;;
61015;SDS011;46902;52.920;6.536;2023-04-16T01:50:00;81.82;;;33.17;;
61015;SDS011;46902;52.920;6.536;2023-04-16T01:52:25;85.10;;;34.05;;
61015;SDS011;46902;52.920;6.536;2023-04-16T01:54:51;91.10;;;32.92;;
61015;SDS011;46902;52.920;6.536;2023-04-16T01:57:17;91.85;;;34.90;;
61015;SDS011;46902;52.920;6.536;2023-04-16T01:59:42;89.30;;;35.10;;
61015;SDS011;46902;52.920;6.536;2023-04-16T02:02:08;81.57;;;31.58;;
61015;SDS011;46902;52.920;6.536;2023-04-16T02:04:39;91.30;;;35.30;;
61015;SDS011;46902;52.920;6.536;2023-04-16T02:07:07;84.70;;;32.67;;
61015;SDS011;46902;52.920;6.536;2023-04-16T02:09:33;89.30;;;34.92;;
61015;SDS011;46902;52.920;6.536;2023-04-16T02:12:00;88.07;;;34.05;;
61015;SDS011;46902;52.920;6.536;2023-04-16T02:14:27;79.47;;;33.10;;
61015;SDS011;46902;52.920;6.536;2023-04-16T02:16:56;72.10;;;33.10;;
61015;SDS011;46902;52.920;6.536;2023-04-16T02:19:22;72.68;;;32.88;;
61015;SDS011;46902;52.920;6.536;2023-04-16T02:21:47;66.97;;;31.48;;
61015;SDS011;46902;52.920;6.536;2023-04-16T02:24:15;68.25;;;32.53;;
61015;SDS011;46902;52.920;6.536;2023-04-16T02:26:40;48.85;;;28.65;;
61015;SDS011;46902;52.920;6.536;2023-04-16T02:29:06;45.65;;;28.95;;
61015;SDS011;46902;52.920;6.536;2023-04-16T02:31:32;54.83;;;31.20;;
61015;SDS011;46902;52.920;6.536;2023-04-16T02:33:58;59.33;;;31.30;;
61015;SDS011;46902;52.920;6.536;2023-04-16T02:36:23;63.55;;;31.98;;
61015;SDS011;46902;52.920;6.536;2023-04-16T02:38:49;56.40;;;28.50;;
61015;SDS011;46902;52.920;6.536;2023-04-16T02:41:15;51.35;;;29.90;;
61015;SDS011;46902;52.920;6.536;2023-04-16T02:43:41;61.35;;;29.77;;
61015;SDS011;46902;52.920;6.536;2023-04-16T02:46:06;64.57;;;30.92;;
61015;SDS011;46902;52.920;6.536;2023-04-16T02:48:32;66.90;;;33.25;;
61015;SDS011;46902;52.920;6.536;2023-04-16T02:50:58;74.05;;;32.13;;
61015;SDS011;46902;52.920;6.536;2023-04-16T02:53:23;73.40;;;34.15;;
61015;SDS011;46902;52.920;6.536;2023-04-16T02:55:53;73.93;;;34.53;;
61015;SDS011;46902;52.920;6.536;2023-04-16T02:58:20;68.72;;;33.03;;
61015;SDS011;46902;52.920;6.536;2023-04-16T03:00:46;66.53;;;31.85;;
61015;SDS011;46902;52.920;6.536;2023-04-16T03:03:12;70.38;;;32.80;;
61015;SDS011;46902;52.920;6.536;2023-04-16T03:05:38;77.78;;;34.10;;
61015;SDS011;46902;52.920;6.536;2023-04-16T03:08:04;73.95;;;34.25;;
61015;SDS011;46902;52.920;6.536;2023-04-16T03:10:30;67.57;;;33.28;;
61015;SDS011;46902;52.920;6.536;2023-04-16T03:12:56;82.13;;;35.88;;
61015;SDS011;46902;52.920;6.536;2023-04-16T03:15:22;56.92;;;31.52;;
61015;SDS011;46902;52.920;6.536;2023-04-16T03:17:47;72.10;;;33.97;;
61015;SDS011;46902;52.920;6.536;2023-04-16T03:20:13;65.22;;;32.60;;
61015;SDS011;46902;52.920;6.536;2023-04-16T03:22:40;58.65;;;31.38;;
61015;SDS011;46902;52.920;6.536;2023-04-16T03:25:07;79.18;;;35.80;;
61015;SDS011;46902;52.920;6.536;2023-04-16T03:27:33;78.05;;;35.15;;
61015;SDS011;46902;52.920;6.536;2023-04-16T03:29:59;57.45;;;31.92;;
61015;SDS011;46902;52.920;6.536;2023-04-16T03:32:24;76.63;;;38.20;;
61015;SDS011;46902;52.920;6.536;2023-04-16T03:34:50;63.00;;;33.58;;
61015;SDS011;46902;52.920;6.536;2023-04-16T03:37:16;70.72;;;34.83;;
61015;SDS011;46902;52.920;6.536;2023-04-16T03:39:41;66.78;;;34.22;;
61015;SDS011;46902;52.920;6.536;2023-04-16T03:42:07;71.03;;;35.63;;
61015;SDS011;46902;52.920;6.536;2023-04-16T03:44:33;57.05;;;32.63;;
61015;SDS011;46902;52.920;6.536;2023-04-16T03:46:59;69.75;;;36.80;;
61015;SDS011;46902;52.920;6.536;2023-04-16T03:49:24;74.90;;;36.92;;
61015;SDS011;46902;52.920;6.536;2023-04-16T03:51:50;58.53;;;34.75;;
61015;SDS011;46902;52.920;6.536;2023-04-16T03:54:16;59.05;;;33.85;;
61015;SDS011;46902;52.920;6.536;2023-04-16T03:56:41;72.45;;;37.15;;
61015;SDS011;46902;52.920;6.536;2023-04-16T03:59:07;67.55;;;35.05;;
61015;SDS011;46902;52.920;6.536;2023-04-16T04:01:33;65.13;;;36.22;;
61015;SDS011;46902;52.920;6.536;2023-04-16T04:03:59;63.45;;;33.58;;
61015;SDS011;46902;52.920;6.536;2023-04-16T04:06:25;71.28;;;35.70;;
61015;SDS011;46902;52.920;6.536;2023-04-16T04:08:51;69.55;;;36.08;;
61015;SDS011;46902;52.920;6.536;2023-04-16T04:11:17;64.05;;;34.72;;
61015;SDS011;46902;52.920;6.536;2023-04-16T04:13:43;74.25;;;36.95;;
61015;SDS011;46902;52.920;6.536;2023-04-16T04:16:09;68.38;;;35.03;;
61015;SDS011;46902;52.920;6.536;2023-04-16T04:18:34;67.93;;;34.55;;
61015;SDS011;46902;52.920;6.536;2023-04-16T04:21:04;79.47;;;36.17;;
61015;SDS011;46902;52.920;6.536;2023-04-16T04:23:30;63.88;;;35.65;;
61015;SDS011;46902;52.920;6.536;2023-04-16T04:25:56;66.47;;;34.95;;
61015;SDS011;46902;52.920;6.536;2023-04-16T04:28:22;50.53;;;30.23;;
61015;SDS011;46902;52.920;6.536;2023-04-16T04:30:47;59.78;;;32.50;;
61015;SDS011;46902;52.920;6.536;2023-04-16T04:33:13;57.97;;;32.25;;
61015;SDS011;46902;52.920;6.536;2023-04-16T04:35:38;67.32;;;35.78;;
61015;SDS011;46902;52.920;6.536;2023-04-16T04:38:04;61.45;;;32.90;;
61015;SDS011;46902;52.920;6.536;2023-04-16T04:40:30;66.40;;;35.58;;
61015;SDS011;46902;52.920;6.536;2023-04-16T04:42:55;54.85;;;32.88;;
61015;SDS011;46902;52.920;6.536;2023-04-16T04:45:21;59.60;;;34.10;;
61015;SDS011;46902;52.920;6.536;2023-04-16T04:47:50;57.05;;;32.63;;
61015;SDS011;46902;52.920;6.536;2023-04-16T04:50:16;52.97;;;32.58;;
61015;SDS011;46902;52.920;6.536;2023-04-16T04:52:42;65.10;;;34.05;;
61015;SDS011;46902;52.920;6.536;2023-04-16T04:55:07;52.50;;;31.38;;
61015;SDS011;46902;52.920;6.536;2023-04-16T04:57:33;66.10;;;34.25;;
61015;SDS011;46902;52.920;6.536;2023-04-16T04:59:58;48.88;;;29.05;;
61015;SDS011;46902;52.920;6.536;2023-04-16T05:02:27;54.00;;;31.50;;
61015;SDS011;46902;52.920;6.536;2023-04-16T05:04:52;59.03;;;31.67;;
61015;SDS011;46902;52.920;6.536;2023-04-16T05:07:18;57.47;;;30.10;;
61015;SDS011;46902;52.920;6.536;2023-04-16T05:09:43;57.90;;;31.23;;
61015;SDS011;46902;52.920;6.536;2023-04-16T05:12:09;57.60;;;31.25;;
61015;SDS011;46902;52.920;6.536;2023-04-16T05:14:34;55.20;;;30.58;;
61015;SDS011;46902;52.920;6.536;2023-04-16T05:17:00;56.05;;;30.35;;
61015;SDS011;46902;52.920;6.536;2023-04-16T05:19:26;51.00;;;29.55;;
61015;SDS011;46902;52.920;6.536;2023-04-16T05:21:51;59.45;;;30.88;;
61015;SDS011;46902;52.920;6.536;2023-04-16T05:24:18;58.53;;;30.85;;
61015;SDS011;46902;52.920;6.536;2023-04-16T05:26:44;61.55;;;31.80;;
61015;SDS011;46902;52.920;6.536;2023-04-16T05:29:09;58.88;;;30.27;;
61015;SDS011;46902;52.920;6.536;2023-04-16T05:31:35;66.68;;;33.17;;
61015;SDS011;46902;52.920;6.536;2023-04-16T05:34:01;67.55;;;31.67;;
61015;SDS011;46902;52.920;6.536;2023-04-16T05:36:26;51.88;;;28.48;;
61015;SDS011;46902;52.920;6.536;2023-04-16T05:38:52;60.10;;;30.15;;
61015;SDS011;46902;52.920;6.536;2023-04-16T05:41:17;63.80;;;31.55;;
61015;SDS011;46902;52.920;6.536;2023-04-16T05:43:43;66.18;;;31.17;;
61015;SDS011;46902;52.920;6.536;2023-04-16T05:46:08;50.33;;;29.45;;
61015;SDS011;46902;52.920;6.536;2023-04-16T05:48:34;53.78;;;29.23;;
61015;SDS011;46902;52.920;6.536;2023-04-16T05:51:00;55.30;;;30.17;;
61015;SDS011;46902;52.920;6.536;2023-04-16T05:53:26;57.10;;;29.85;;
61015;SDS011;46902;52.920;6.536;2023-04-16T05:55:52;53.95;;;29.92;;
61015;SDS011;46902;52.920;6.536;2023-04-16T05:58:17;57.88;;;29.85;;
61015;SDS011;46902;52.920;6.536;2023-04-16T06:00:43;49.97;;;28.27;;
61015;SDS011;46902;52.920;6.536;2023-04-16T06:03:09;48.60;;;29.05;;
61015;SDS011;46902;52.920;6.536;2023-04-16T06:05:34;46.95;;;28.70;;
61015;SDS011;46902;52.920;6.536;2023-04-16T06:08:00;49.63;;;28.48;;
61015;SDS011;46902;52.920;6.536;2023-04-16T06:10:26;40.95;;;25.75;;
61015;SDS011;46902;52.920;6.536;2023-04-16T06:12:52;50.05;;;29.23;;
61015;SDS011;46902;52.920;6.536;2023-04-16T06:15:17;45.95;;;28.88;;
61015;SDS011;46902;52.920;6.536;2023-04-16T06:17:43;47.72;;;28.13;;
61015;SDS011;46902;52.920;6.536;2023-04-16T06:20:09;53.92;;;28.33;;
61015;SDS011;46902;52.920;6.536;2023-04-16T06:22:35;50.10;;;26.77;;
61015;SDS011;46902;52.920;6.536;2023-04-16T06:25:01;50.05;;;28.23;;
61015;SDS011;46902;52.920;6.536;2023-04-16T06:27:27;49.95;;;26.98;;
61015;SDS011;46902;52.920;6.536;2023-04-16T06:29:52;42.00;;;26.20;;
61015;SDS011;46902;52.920;6.536;2023-04-16T06:32:18;47.42;;;27.00;;
61015;SDS011;46902;52.920;6.536;2023-04-16T06:34:44;43.83;;;26.25;;
61015;SDS011;46902;52.920;6.536;2023-04-16T06:37:09;41.28;;;25.08;;
61015;SDS011;46902;52.920;6.536;2023-04-16T06:39:35;43.78;;;26.02;;
61015;SDS011;46902;52.920;6.536;2023-04-16T06:42:00;41.53;;;25.10;;
61015;SDS011;46902;52.920;6.536;2023-04-16T06:44:26;44.40;;;25.75;;
61015;SDS011;46902;52.920;6.536;2023-04-16T06:46:52;46.88;;;25.90;;
61015;SDS011;46902;52.920;6.536;2023-04-16T06:49:17;47.33;;;26.35;;
61015;SDS011;46902;52.920;6.536;2023-04-16T06:51:43;44.58;;;25.20;;
61015;SDS011;46902;52.920;6.536;2023-04-16T06:54:09;44.65;;;24.38;;
61015;SDS011;46902;52.920;6.536;2023-04-16T06:56:34;45.85;;;25.10;;
61015;SDS011;46902;52.920;6.536;2023-04-16T06:59:01;47.50;;;24.60;;
61015;SDS011;46902;52.920;6.536;2023-04-16T07:01:27;46.08;;;25.15;;
61015;SDS011;46902;52.920;6.536;2023-04-16T07:03:55;44.78;;;24.35;;
61015;SDS011;46902;52.920;6.536;2023-04-16T07:06:21;37.10;;;22.42;;
61015;SDS011;46902;52.920;6.536;2023-04-16T07:08:47;38.35;;;23.48;;
61015;SDS011;46902;52.920;6.536;2023-04-16T07:11:12;34.55;;;21.73;;
61015;SDS011;46902;52.920;6.536;2023-04-16T07:13:38;34.40;;;21.55;;
61015;SDS011;46902;52.920;6.536;2023-04-16T07:16:04;37.20;;;22.30;;
61015;SDS011;46902;52.920;6.536;2023-04-16T07:18:29;37.03;;;22.63;;
61015;SDS011;46902;52.920;6.536;2023-04-16T07:20:55;37.47;;;22.25;;
61015;SDS011;46902;52.920;6.536;2023-04-16T07:23:21;37.38;;;21.48;;
61015;SDS011;46902;52.920;6.536;2023-04-16T07:25:47;37.90;;;21.98;;
61015;SDS011;46902;52.920;6.536;2023-04-16T07:28:12;38.92;;;22.35;;
61015;SDS011;46902;52.920;6.536;2023-04-16T07:30:41;31.92;;;21.00;;
61015;SDS011;46902;52.920;6.536;2023-04-16T07:33:07;34.25;;;20.70;;
61015;SDS011;46902;52.920;6.536;2023-04-16T07:35:33;37.33;;;21.63;;
61015;SDS011;46902;52.920;6.536;2023-04-16T07:37:58;40.10;;;22.48;;
61015;SDS011;46902;52.920;6.536;2023-04-16T07:40:24;36.50;;;20.88;;
61015;SDS011;46902;52.920;6.536;2023-04-16T07:42:50;38.42;;;20.30;;
61015;SDS011;46902;52.920;6.536;2023-04-16T07:45:16;35.25;;;20.23;;
61015;SDS011;46902;52.920;6.536;2023-04-16T07:47:43;35.85;;;21.08;;
61015;SDS011;46902;52.920;6.536;2023-04-16T07:50:09;36.45;;;20.65;;
61015;SDS011;46902;52.920;6.536;2023-04-16T07:52:35;39.53;;;21.02;;
61015;SDS011;46902;52.920;6.536;2023-04-16T07:55:03;36.38;;;20.08;;
61015;SDS011;46902;52.920;6.536;2023-04-16T07:57:29;40.38;;;21.23;;
61015;SDS011;46902;52.920;6.536;2023-04-16T07:59:55;47.20;;;21.83;;
61015;SDS011;46902;52.920;6.536;2023-04-16T08:02:20;44.78;;;21.10;;
61015;SDS011;46902;52.920;6.536;2023-04-16T08:04:46;40.97;;;21.13;;
61015;SDS011;46902;52.920;6.536;2023-04-16T08:07:11;42.38;;;22.33;;
61015;SDS011;46902;52.920;6.536;2023-04-16T08:09:46;35.40;;;21.45;;
61015;SDS011;46902;52.920;6.536;2023-04-16T08:12:13;46.95;;;20.77;;
61015;SDS011;46902;52.920;6.536;2023-04-16T08:14:38;45.20;;;21.50;;
61015;SDS011;46902;52.920;6.536;2023-04-16T08:17:05;48.40;;;22.25;;
61015;SDS011;46902;52.920;6.536;2023-04-16T08:19:31;44.35;;;21.27;;
61015;SDS011;46902;52.920;6.536;2023-04-16T08:21:56;38.13;;;20.10;;
61015;SDS011;46902;52.920;6.536;2023-04-16T08:24:23;35.80;;;18.60;;
61015;SDS011;46902;52.920;6.536;2023-04-16T08:26:48;38.55;;;19.38;;
61015;SDS011;46902;52.920;6.536;2023-04-16T08:29:14;42.78;;;19.50;;
61015;SDS011;46902;52.920;6.536;2023-04-16T08:31:39;37.90;;;19.10;;
61015;SDS011;46902;52.920;6.536;2023-04-16T08:34:05;46.33;;;21.83;;
61015;SDS011;46902;52.920;6.536;2023-04-16T08:36:31;39.30;;;20.65;;
61015;SDS011;46902;52.920;6.536;2023-04-16T08:38:57;42.42;;;19.60;;
61015;SDS011;46902;52.920;6.536;2023-04-16T08:41:22;33.17;;;18.70;;
61015;SDS011;46902;52.920;6.536;2023-04-16T08:43:49;39.28;;;18.95;;
61015;SDS011;46902;52.920;6.536;2023-04-16T08:46:17;42.88;;;20.20;;
61015;SDS011;46902;52.920;6.536;2023-04-16T08:48:47;38.35;;;19.15;;
61015;SDS011;46902;52.920;6.536;2023-04-16T08:51:15;35.28;;;20.02;;
61015;SDS011;46902;52.920;6.536;2023-04-16T08:56:22;40.20;;;19.58;;
61015;SDS011;46902;52.920;6.536;2023-04-16T08:58:49;30.35;;;18.38;;
61015;SDS011;46902;52.920;6.536;2023-04-16T09:01:18;39.97;;;18.55;;
61015;SDS011;46902;52.920;6.536;2023-04-16T09:03:46;34.45;;;18.52;;
61015;SDS011;46902;52.920;6.536;2023-04-16T09:06:12;34.65;;;18.80;;
61015;SDS011;46902;52.920;6.536;2023-04-16T09:08:39;33.13;;;18.30;;
61015;SDS011;46902;52.920;6.536;2023-04-16T09:11:05;32.35;;;18.08;;
61015;SDS011;46902;52.920;6.536;2023-04-16T09:13:31;30.88;;;17.58;;
61015;SDS011;46902;52.920;6.536;2023-04-16T09:15:57;31.25;;;16.48;;
61015;SDS011;46902;52.920;6.536;2023-04-16T09:18:23;29.75;;;16.23;;
61015;SDS011;46902;52.920;6.536;2023-04-16T09:20:50;23.17;;;14.77;;
61015;SDS011;46902;52.920;6.536;2023-04-16T09:23:16;26.88;;;16.05;;
61015;SDS011;46902;52.920;6.536;2023-04-16T09:25:42;24.92;;;16.67;;
61015;SDS011;46902;52.920;6.536;2023-04-16T09:28:08;28.70;;;15.68;;
61015;SDS011;46902;52.920;6.536;2023-04-16T09:30:35;26.80;;;14.77;;
61015;SDS011;46902;52.920;6.536;2023-04-16T09:35:44;27.67;;;15.60;;
61015;SDS011;46902;52.920;6.536;2023-04-16T09:38:11;28.05;;;15.35;;
61015;SDS011;46902;52.920;6.536;2023-04-16T09:40:37;29.45;;;14.18;;
61015;SDS011;46902;52.920;6.536;2023-04-16T09:43:09;23.98;;;14.60;;
61015;SDS011;46902;52.920;6.536;2023-04-16T09:46:09;21.88;;;13.48;;
61015;SDS011;46902;52.920;6.536;2023-04-16T09:48:32;23.52;;;13.80;;
61015;SDS011;46902;52.920;6.536;2023-04-16T09:50:58;19.98;;;13.13;;
61015;SDS011;46902;52.920;6.536;2023-04-16T09:55:51;22.38;;;14.07;;
61015;SDS011;46902;52.920;6.536;2023-04-16T09:58:19;25.20;;;14.05;;
61015;SDS011;46902;52.920;6.536;2023-04-16T10:00:46;22.13;;;13.60;;
61015;SDS011;46902;52.920;6.536;2023-04-16T10:03:12;22.50;;;13.40;;
61015;SDS011;46902;52.920;6.536;2023-04-16T10:05:37;21.35;;;13.20;;
61015;SDS011;46902;52.920;6.536;2023-04-16T10:08:09;23.00;;;14.65;;
61015;SDS011;46902;52.920;6.536;2023-04-16T10:10:36;23.30;;;14.23;;
61015;SDS011;46902;52.920;6.536;2023-04-16T10:13:02;23.65;;;13.73;;
61015;SDS011;46902;52.920;6.536;2023-04-16T10:15:28;21.60;;;13.50;;
61015;SDS011;46902;52.920;6.536;2023-04-16T10:17:54;22.95;;;12.68;;
61015;SDS011;46902;52.920;6.536;2023-04-16T10:20:21;18.80;;;12.90;;
61015;SDS011;46902;52.920;6.536;2023-04-16T10:22:48;18.50;;;12.77;;
61015;SDS011;46902;52.920;6.536;2023-04-16T10:25:14;20.67;;;12.85;;
61015;SDS011;46902;52.920;6.536;2023-04-16T10:27:41;18.02;;;12.60;;
61015;SDS011;46902;52.920;6.536;2023-04-16T10:30:07;25.52;;;13.82;;
61015;SDS011;46902;52.920;6.536;2023-04-16T10:32:35;18.88;;;11.73;;
61015;SDS011;46902;52.920;6.536;2023-04-16T10:35:02;18.38;;;11.77;;
61015;SDS011;46902;52.920;6.536;2023-04-16T10:37:29;17.13;;;11.82;;
61015;SDS011;46902;52.920;6.536;2023-04-16T10:39:55;18.70;;;11.60;;
61015;SDS011;46902;52.920;6.536;2023-04-16T10:42:22;19.77;;;11.48;;
61015;SDS011;46902;52.920;6.536;2023-04-16T10:44:47;21.13;;;11.82;;
61015;SDS011;46902;52.920;6.536;2023-04-16T10:47:13;20.15;;;11.68;;
61015;SDS011;46902;52.920;6.536;2023-04-16T10:49:39;18.90;;;12.27;;
61015;SDS011;46902;52.920;6.536;2023-04-16T10:52:12;19.55;;;12.13;;
61015;SDS011;46902;52.920;6.536;2023-04-16T10:54:41;15.75;;;11.68;;
61015;SDS011;46902;52.920;6.536;2023-04-16T10:57:08;20.75;;;11.40;;
61015;SDS011;46902;52.920;6.536;2023-04-16T10:59:36;16.40;;;11.05;;
61015;SDS011;46902;52.920;6.536;2023-04-16T11:02:07;22.65;;;11.55;;
61015;SDS011;46902;52.920;6.536;2023-04-16T11:04:38;17.35;;;11.73;;
61015;SDS011;46902;52.920;6.536;2023-04-16T11:09:59;16.98;;;11.82;;
61015;SDS011;46902;52.920;6.536;2023-04-16T11:14:57;17.88;;;11.40;;
61015;SDS011;46902;52.920;6.536;2023-04-16T11:17:29;17.50;;;11.13;;
61015;SDS011;46902;52.920;6.536;2023-04-16T11:20:01;18.30;;;11.35;;
61015;SDS011;46902;52.920;6.536;2023-04-16T11:22:27;20.00;;;12.32;;
61015;SDS011;46902;52.920;6.536;2023-04-16T11:24:54;18.75;;;11.50;;
61015;SDS011;46902;52.920;6.536;2023-04-16T11:27:21;16.98;;;11.43;;
61015;SDS011;46902;52.920;6.536;2023-04-16T11:29:57;18.08;;;12.32;;
61015;SDS011;46902;52.920;6.536;2023-04-16T11:32:36;19.88;;;12.23;;
61015;SDS011;46902;52.920;6.536;2023-04-16T11:35:17;19.73;;;12.05;;
61015;SDS011;46902;52.920;6.536;2023-04-16T11:37:44;17.42;;;11.57;;
61015;SDS011;46902;52.920;6.536;2023-04-16T11:40:11;19.25;;;11.85;;
61015;SDS011;46902;52.920;6.536;2023-04-16T11:42:37;19.55;;;11.63;;
61015;SDS011;46902;52.920;6.536;2023-04-16T11:45:05;20.77;;;11.57;;
61015;SDS011;46902;52.920;6.536;2023-04-16T11:47:45;17.80;;;11.30;;
61015;SDS011;46902;52.920;6.536;2023-04-16T11:50:18;17.25;;;11.52;;
61015;SDS011;46902;52.920;6.536;2023-04-16T11:52:48;16.92;;;11.18;;
61015;SDS011;46902;52.920;6.536;2023-04-16T11:55:15;19.75;;;11.70;;
61015;SDS011;46902;52.920;6.536;2023-04-16T11:57:41;19.45;;;12.05;;
61015;SDS011;46902;52.920;6.536;2023-04-16T12:00:07;17.05;;;11.23;;
61015;SDS011;46902;52.920;6.536;2023-04-16T12:02:37;17.23;;;10.55;;
61015;SDS011;46902;52.920;6.536;2023-04-16T12:05:05;18.95;;;11.02;;
61015;SDS011;46902;52.920;6.536;2023-04-16T12:07:42;25.35;;;12.38;;
61015;SDS011;46902;52.920;6.536;2023-04-16T12:10:10;23.45;;;12.52;;
61015;SDS011;46902;52.920;6.536;2023-04-16T12:12:35;22.25;;;13.52;;
61015;SDS011;46902;52.920;6.536;2023-04-16T12:15:01;23.40;;;12.85;;
61015;SDS011;46902;52.920;6.536;2023-04-16T12:17:28;24.15;;;12.68;;
61015;SDS011;46902;52.920;6.536;2023-04-16T12:19:58;20.80;;;12.27;;
61015;SDS011;46902;52.920;6.536;2023-04-16T12:22:32;21.70;;;11.38;;
61015;SDS011;46902;52.920;6.536;2023-04-16T12:25:00;18.42;;;11.32;;
61015;SDS011;46902;52.920;6.536;2023-04-16T12:30:16;23.42;;;12.23;;
61015;SDS011;46902;52.920;6.536;2023-04-16T12:32:45;24.45;;;11.68;;
61015;SDS011;46902;52.920;6.536;2023-04-16T12:35:12;24.48;;;12.55;;
61015;SDS011;46902;52.920;6.536;2023-04-16T12:37:38;20.13;;;11.65;;
61015;SDS011;46902;52.920;6.536;2023-04-16T12:40:04;23.58;;;12.63;;
61015;SDS011;46902;52.920;6.536;2023-04-16T12:42:31;22.65;;;12.35;;
61015;SDS011;46902;52.920;6.536;2023-04-16T12:45:04;21.90;;;12.82;;
61015;SDS011;46902;52.920;6.536;2023-04-16T12:47:31;19.48;;;11.80;;
61015;SDS011;46902;52.920;6.536;2023-04-16T12:49:56;22.20;;;12.45;;
61015;SDS011;46902;52.920;6.536;2023-04-16T12:52:26;19.95;;;12.40;;
61015;SDS011;46902;52.920;6.536;2023-04-16T12:54:51;21.92;;;12.50;;
61015;SDS011;46902;52.920;6.536;2023-04-16T12:57:17;19.92;;;11.90;;
61015;SDS011;46902;52.920;6.536;2023-04-16T12:59:43;22.73;;;12.55;;
61015;SDS011;46902;52.920;6.536;2023-04-16T13:02:10;20.40;;;12.23;;
61015;SDS011;46902;52.920;6.536;2023-04-16T13:04:35;16.17;;;11.32;;
61015;SDS011;46902;52.920;6.536;2023-04-16T13:07:01;20.02;;;12.68;;
61015;SDS011;46902;52.920;6.536;2023-04-16T13:09:27;21.25;;;12.15;;
61015;SDS011;46902;52.920;6.536;2023-04-16T13:11:52;17.40;;;11.30;;
61015;SDS011;46902;52.920;6.536;2023-04-16T13:14:19;22.58;;;12.93;;
61015;SDS011;46902;52.920;6.536;2023-04-16T13:16:45;20.23;;;12.18;;
61015;SDS011;46902;52.920;6.536;2023-04-16T13:19:10;16.40;;;11.13;;
61015;SDS011;46902;52.920;6.536;2023-04-16T13:21:36;22.00;;;11.88;;
61015;SDS011;46902;52.920;6.536;2023-04-16T13:24:02;18.40;;;12.05;;
61015;SDS011;46902;52.920;6.536;2023-04-16T13:26:27;19.77;;;11.63;;
61015;SDS011;46902;52.920;6.536;2023-04-16T13:28:53;19.70;;;12.27;;
61015;SDS011;46902;52.920;6.536;2023-04-16T13:31:19;21.60;;;11.95;;
61015;SDS011;46902;52.920;6.536;2023-04-16T13:33:46;21.08;;;11.57;;
61015;SDS011;46902;52.920;6.536;2023-04-16T13:36:12;17.63;;;11.25;;
61015;SDS011;46902;52.920;6.536;2023-04-16T13:38:38;18.60;;;11.57;;
61015;SDS011;46902;52.920;6.536;2023-04-16T13:41:03;16.60;;;11.45;;
61015;SDS011;46902;52.920;6.536;2023-04-16T13:43:30;22.10;;;11.13;;
61015;SDS011;46902;52.920;6.536;2023-04-16T13:45:56;20.00;;;12.45;;
61015;SDS011;46902;52.920;6.536;2023-04-16T13:48:22;17.67;;;11.40;;
61015;SDS011;46902;52.920;6.536;2023-04-16T13:50:48;18.75;;;11.88;;
61015;SDS011;46902;52.920;6.536;2023-04-16T13:53:14;22.00;;;11.65;;
61015;SDS011;46902;52.920;6.536;2023-04-16T13:55:39;18.17;;;11.18;;
61015;SDS011;46902;52.920;6.536;2023-04-16T13:58:07;22.20;;;11.43;;
61015;SDS011;46902;52.920;6.536;2023-04-16T14:00:33;22.48;;;12.75;;
61015;SDS011;46902;52.920;6.536;2023-04-16T14:02:58;21.63;;;11.73;;
61015;SDS011;46902;52.920;6.536;2023-04-16T14:05:24;19.08;;;11.90;;
61015;SDS011;46902;52.920;6.536;2023-04-16T14:07:50;19.63;;;11.90;;
61015;SDS011;46902;52.920;6.536;2023-04-16T14:10:15;18.23;;;11.40;;
61015;SDS011;46902;52.920;6.536;2023-04-16T14:12:42;22.50;;;12.45;;
61015;SDS011;46902;52.920;6.536;2023-04-16T14:15:08;20.90;;;12.32;;
61015;SDS011;46902;52.920;6.536;2023-04-16T14:17:34;23.90;;;12.23;;
61015;SDS011;46902;52.920;6.536;2023-04-16T14:20:01;19.63;;;12.57;;
61015;SDS011;46902;52.920;6.536;2023-04-16T14:22:28;25.55;;;12.23;;
61015;SDS011;46902;52.920;6.536;2023-04-16T14:24:54;20.95;;;13.02;;
61015;SDS011;46902;52.920;6.536;2023-04-16T14:27:20;21.92;;;12.02;;
61015;SDS011;46902;52.920;6.536;2023-04-16T14:29:45;28.42;;;13.43;;
61015;SDS011;46902;52.920;6.536;2023-04-16T14:32:11;21.00;;;12.30;;